Terminal Aerodrome Forecast
Issued by NWS

Home | Current Version | Previous Version | Text Only | Print | Product List | Glossary On
Versions: 1 2 3 4 5 6 7 8 9 10 11 12 13
574
FTUS42 KGSP 080539
TAFAND
TAF
KAND 080539Z 0806/0906 00000KT P6SM FEW250
     FM081300 23005KT P6SM BKN110
     FM081800 25010G19KT P6SM OVC070 PROB30 0818/0823 4SM -SHRA
      OVC040
     FM090200 27010KT P6SM SCT060=

USA.gov is the U.S. government's official web portal to all federal, state and local government web resources and services.